NK09 weather

Eagle Ridge Airport
Burdett, New York, United States

Public forecast

Using degrees Fahrenheit for public forecast. Weather courtesy of forecast.io.

Closest aviation weather report (METAR) to Eagle Ridge Airport

Closest report is Elmira Corning Regional Airport, 15.1 nm (27.9 km) SSW. Retrieved 2019/10/21 06:53 UTC (2 hours ago):

KELM 210653Z AUTO 00000KT 1/4SM R24/1400V1600FT FG VV002 06/06 A3004 RMK AO2 SLP176 T00610061

Closest aviation forecast (TAF) to Eagle Ridge Airport

Closest forecast is Elmira Corning Regional Airport, 15.1 nm (27.9 km) SSW. Retrieved 2019/10/21 06:36 UTC (2 hours ago):

TAF KELM 210533Z 2106/2206 00000KT 1/4SM FG VV001 FM211200 00000KT 1/2SM FG VV002 FM211300 00000KT 2SM BR BKN002 FM211400 14005KT P6SM SKC